sensor_id;sensor_type;location;lat;lon;timestamp;P1;durP1;ratioP1;P2;durP2;ratioP2
32521;SDS011;18963;51.504;5.316;2023-09-07T00:02:15;12.63;;;7.78;;
32521;SDS011;18963;51.504;5.316;2023-09-07T00:04:41;12.13;;;6.95;;
32521;SDS011;18963;51.504;5.316;2023-09-07T00:07:08;13.13;;;7.72;;
32521;SDS011;18963;51.504;5.316;2023-09-07T00:09:33;12.98;;;7.68;;
32521;SDS011;18963;51.504;5.316;2023-09-07T00:11:59;13.98;;;7.80;;
32521;SDS011;18963;51.504;5.316;2023-09-07T00:14:25;16.10;;;8.57;;
32521;SDS011;18963;51.504;5.316;2023-09-07T00:16:50;15.50;;;8.95;;
32521;SDS011;18963;51.504;5.316;2023-09-07T00:19:16;14.75;;;9.43;;
32521;SDS011;18963;51.504;5.316;2023-09-07T00:21:41;14.30;;;8.65;;
32521;SDS011;18963;51.504;5.316;2023-09-07T00:24:07;16.52;;;9.90;;
32521;SDS011;18963;51.504;5.316;2023-09-07T00:26:33;17.10;;;9.43;;
32521;SDS011;18963;51.504;5.316;2023-09-07T00:28:58;16.30;;;9.80;;
32521;SDS011;18963;51.504;5.316;2023-09-07T00:31:24;16.52;;;9.90;;
32521;SDS011;18963;51.504;5.316;2023-09-07T00:33:49;14.63;;;8.35;;
32521;SDS011;18963;51.504;5.316;2023-09-07T00:36:15;15.70;;;9.00;;
32521;SDS011;18963;51.504;5.316;2023-09-07T00:38:40;15.63;;;8.70;;
32521;SDS011;18963;51.504;5.316;2023-09-07T00:41:06;13.88;;;9.00;;
32521;SDS011;18963;51.504;5.316;2023-09-07T00:43:32;14.73;;;8.68;;
32521;SDS011;18963;51.504;5.316;2023-09-07T00:45:57;16.40;;;9.05;;
32521;SDS011;18963;51.504;5.316;2023-09-07T00:48:23;13.00;;;7.93;;
32521;SDS011;18963;51.504;5.316;2023-09-07T00:50:48;13.98;;;8.88;;
32521;SDS011;18963;51.504;5.316;2023-09-07T00:53:14;13.80;;;8.45;;
32521;SDS011;18963;51.504;5.316;2023-09-07T00:55:40;14.05;;;8.30;;
32521;SDS011;18963;51.504;5.316;2023-09-07T00:58:06;13.60;;;8.25;;
32521;SDS011;18963;51.504;5.316;2023-09-07T01:00:32;14.15;;;9.07;;
32521;SDS011;18963;51.504;5.316;2023-09-07T01:02:58;14.65;;;8.68;;
32521;SDS011;18963;51.504;5.316;2023-09-07T01:05:30;13.20;;;8.18;;
32521;SDS011;18963;51.504;5.316;2023-09-07T01:08:07;12.88;;;8.50;;
32521;SDS011;18963;51.504;5.316;2023-09-07T01:10:39;13.40;;;7.93;;
32521;SDS011;18963;51.504;5.316;2023-09-07T01:13:05;13.73;;;8.52;;
32521;SDS011;18963;51.504;5.316;2023-09-07T01:15:30;15.90;;;9.55;;
32521;SDS011;18963;51.504;5.316;2023-09-07T01:17:56;12.48;;;8.18;;
32521;SDS011;18963;51.504;5.316;2023-09-07T01:20:23;13.15;;;8.23;;
32521;SDS011;18963;51.504;5.316;2023-09-07T01:22:50;14.00;;;9.30;;
32521;SDS011;18963;51.504;5.316;2023-09-07T01:25:16;15.27;;;8.88;;
32521;SDS011;18963;51.504;5.316;2023-09-07T01:27:42;15.15;;;9.40;;
32521;SDS011;18963;51.504;5.316;2023-09-07T01:30:08;16.58;;;9.90;;
32521;SDS011;18963;51.504;5.316;2023-09-07T01:32:34;15.68;;;9.27;;
32521;SDS011;18963;51.504;5.316;2023-09-07T01:34:59;15.38;;;9.90;;
32521;SDS011;18963;51.504;5.316;2023-09-07T01:37:26;17.15;;;10.68;;
32521;SDS011;18963;51.504;5.316;2023-09-07T01:39:52;15.30;;;9.98;;
32521;SDS011;18963;51.504;5.316;2023-09-07T01:42:17;17.90;;;11.25;;
32521;SDS011;18963;51.504;5.316;2023-09-07T01:44:43;14.23;;;9.43;;
32521;SDS011;18963;51.504;5.316;2023-09-07T01:47:08;17.48;;;10.80;;
32521;SDS011;18963;51.504;5.316;2023-09-07T01:49:34;15.35;;;9.80;;
32521;SDS011;18963;51.504;5.316;2023-09-07T01:51:59;16.08;;;9.13;;
32521;SDS011;18963;51.504;5.316;2023-09-07T01:54:26;18.02;;;10.52;;
32521;SDS011;18963;51.504;5.316;2023-09-07T01:56:52;16.55;;;9.63;;
32521;SDS011;18963;51.504;5.316;2023-09-07T01:59:17;14.93;;;9.55;;
32521;SDS011;18963;51.504;5.316;2023-09-07T02:01:43;19.20;;;10.45;;
32521;SDS011;18963;51.504;5.316;2023-09-07T02:04:08;18.73;;;9.90;;
32521;SDS011;18963;51.504;5.316;2023-09-07T02:06:34;17.48;;;11.68;;
32521;SDS011;18963;51.504;5.316;2023-09-07T02:08:59;16.50;;;10.95;;
32521;SDS011;18963;51.504;5.316;2023-09-07T02:11:25;15.73;;;10.27;;
32521;SDS011;18963;51.504;5.316;2023-09-07T02:13:50;19.25;;;11.38;;
32521;SDS011;18963;51.504;5.316;2023-09-07T02:16:16;18.15;;;11.55;;
32521;SDS011;18963;51.504;5.316;2023-09-07T02:18:43;16.52;;;11.25;;
32521;SDS011;18963;51.504;5.316;2023-09-07T02:21:10;15.40;;;10.80;;
32521;SDS011;18963;51.504;5.316;2023-09-07T02:23:36;16.70;;;10.73;;
32521;SDS011;18963;51.504;5.316;2023-09-07T02:26:02;17.30;;;10.25;;
32521;SDS011;18963;51.504;5.316;2023-09-07T02:28:28;18.17;;;10.93;;
32521;SDS011;18963;51.504;5.316;2023-09-07T02:30:54;17.52;;;10.07;;
32521;SDS011;18963;51.504;5.316;2023-09-07T02:33:20;17.08;;;9.75;;
32521;SDS011;18963;51.504;5.316;2023-09-07T02:35:47;13.35;;;8.60;;
32521;SDS011;18963;51.504;5.316;2023-09-07T02:38:14;17.45;;;10.90;;
32521;SDS011;18963;51.504;5.316;2023-09-07T02:40:43;17.88;;;10.75;;
32521;SDS011;18963;51.504;5.316;2023-09-07T02:43:11;17.60;;;10.57;;
32521;SDS011;18963;51.504;5.316;2023-09-07T02:45:37;17.90;;;11.75;;
32521;SDS011;18963;51.504;5.316;2023-09-07T02:48:03;17.60;;;11.55;;
32521;SDS011;18963;51.504;5.316;2023-09-07T02:50:31;17.83;;;11.20;;
32521;SDS011;18963;51.504;5.316;2023-09-07T02:52:59;17.25;;;10.93;;
32521;SDS011;18963;51.504;5.316;2023-09-07T02:55:25;17.13;;;11.32;;
32521;SDS011;18963;51.504;5.316;2023-09-07T02:57:51;17.48;;;10.75;;
32521;SDS011;18963;51.504;5.316;2023-09-07T03:00:17;18.48;;;12.60;;
32521;SDS011;18963;51.504;5.316;2023-09-07T03:02:43;16.23;;;8.93;;
32521;SDS011;18963;51.504;5.316;2023-09-07T03:05:09;16.25;;;10.25;;
32521;SDS011;18963;51.504;5.316;2023-09-07T03:07:35;17.20;;;10.25;;
32521;SDS011;18963;51.504;5.316;2023-09-07T03:10:00;18.77;;;11.60;;
32521;SDS011;18963;51.504;5.316;2023-09-07T03:12:26;17.52;;;10.70;;
32521;SDS011;18963;51.504;5.316;2023-09-07T03:14:53;17.70;;;10.48;;
32521;SDS011;18963;51.504;5.316;2023-09-07T03:17:18;15.43;;;10.68;;
32521;SDS011;18963;51.504;5.316;2023-09-07T03:19:45;17.98;;;11.60;;
32521;SDS011;18963;51.504;5.316;2023-09-07T03:22:11;17.70;;;10.60;;
32521;SDS011;18963;51.504;5.316;2023-09-07T03:24:37;20.85;;;12.10;;
32521;SDS011;18963;51.504;5.316;2023-09-07T03:27:03;15.18;;;9.60;;
32521;SDS011;18963;51.504;5.316;2023-09-07T03:29:30;16.35;;;9.85;;
32521;SDS011;18963;51.504;5.316;2023-09-07T03:31:58;16.15;;;9.98;;
32521;SDS011;18963;51.504;5.316;2023-09-07T03:34:27;15.68;;;10.05;;
32521;SDS011;18963;51.504;5.316;2023-09-07T03:36:53;14.77;;;9.70;;
32521;SDS011;18963;51.504;5.316;2023-09-07T03:39:18;16.17;;;9.18;;
32521;SDS011;18963;51.504;5.316;2023-09-07T03:41:46;15.90;;;9.30;;
32521;SDS011;18963;51.504;5.316;2023-09-07T03:44:11;15.63;;;9.45;;
32521;SDS011;18963;51.504;5.316;2023-09-07T03:46:37;17.20;;;10.90;;
32521;SDS011;18963;51.504;5.316;2023-09-07T03:49:02;21.23;;;12.95;;
32521;SDS011;18963;51.504;5.316;2023-09-07T03:51:28;17.60;;;11.43;;
32521;SDS011;18963;51.504;5.316;2023-09-07T03:53:53;19.48;;;10.85;;
32521;SDS011;18963;51.504;5.316;2023-09-07T03:56:19;20.15;;;11.00;;
32521;SDS011;18963;51.504;5.316;2023-09-07T03:58:44;17.80;;;9.70;;
32521;SDS011;18963;51.504;5.316;2023-09-07T04:01:12;21.08;;;11.10;;
32521;SDS011;18963;51.504;5.316;2023-09-07T04:03:38;17.50;;;11.27;;
32521;SDS011;18963;51.504;5.316;2023-09-07T04:06:05;18.95;;;13.00;;
32521;SDS011;18963;51.504;5.316;2023-09-07T04:08:30;19.65;;;12.23;;
32521;SDS011;18963;51.504;5.316;2023-09-07T04:10:56;20.38;;;12.10;;
32521;SDS011;18963;51.504;5.316;2023-09-07T04:13:21;19.27;;;11.73;;
32521;SDS011;18963;51.504;5.316;2023-09-07T04:15:47;17.67;;;11.35;;
32521;SDS011;18963;51.504;5.316;2023-09-07T04:18:12;19.20;;;11.23;;
32521;SDS011;18963;51.504;5.316;2023-09-07T04:20:40;17.30;;;10.70;;
32521;SDS011;18963;51.504;5.316;2023-09-07T04:23:05;21.33;;;12.48;;
32521;SDS011;18963;51.504;5.316;2023-09-07T04:25:31;17.65;;;11.07;;
32521;SDS011;18963;51.504;5.316;2023-09-07T04:27:57;18.58;;;11.32;;
32521;SDS011;18963;51.504;5.316;2023-09-07T04:30:23;21.25;;;10.65;;
32521;SDS011;18963;51.504;5.316;2023-09-07T04:32:49;18.00;;;11.05;;
32521;SDS011;18963;51.504;5.316;2023-09-07T04:35:14;16.17;;;9.95;;
32521;SDS011;18963;51.504;5.316;2023-09-07T04:37:44;18.42;;;10.63;;
32521;SDS011;18963;51.504;5.316;2023-09-07T04:40:10;15.85;;;9.35;;
32521;SDS011;18963;51.504;5.316;2023-09-07T04:42:36;19.70;;;11.48;;
32521;SDS011;18963;51.504;5.316;2023-09-07T04:45:04;17.27;;;10.40;;
32521;SDS011;18963;51.504;5.316;2023-09-07T04:47:30;15.98;;;10.18;;
32521;SDS011;18963;51.504;5.316;2023-09-07T04:49:55;16.35;;;10.90;;
32521;SDS011;18963;51.504;5.316;2023-09-07T04:52:21;19.15;;;10.55;;
32521;SDS011;18963;51.504;5.316;2023-09-07T04:54:47;18.17;;;10.73;;
32521;SDS011;18963;51.504;5.316;2023-09-07T04:57:13;18.50;;;9.77;;
32521;SDS011;18963;51.504;5.316;2023-09-07T04:59:41;17.77;;;10.40;;
32521;SDS011;18963;51.504;5.316;2023-09-07T05:02:06;17.45;;;10.10;;
32521;SDS011;18963;51.504;5.316;2023-09-07T05:04:32;17.35;;;10.20;;
32521;SDS011;18963;51.504;5.316;2023-09-07T05:06:57;17.58;;;10.50;;
32521;SDS011;18963;51.504;5.316;2023-09-07T05:09:23;18.48;;;10.55;;
32521;SDS011;18963;51.504;5.316;2023-09-07T05:11:50;21.17;;;12.43;;
32521;SDS011;18963;51.504;5.316;2023-09-07T05:14:16;20.08;;;11.48;;
32521;SDS011;18963;51.504;5.316;2023-09-07T05:16:44;20.95;;;11.80;;
32521;SDS011;18963;51.504;5.316;2023-09-07T05:19:09;20.40;;;11.27;;
32521;SDS011;18963;51.504;5.316;2023-09-07T05:21:35;14.10;;;8.65;;
32521;SDS011;18963;51.504;5.316;2023-09-07T05:24:00;19.98;;;10.55;;
32521;SDS011;18963;51.504;5.316;2023-09-07T05:26:26;17.52;;;10.05;;
32521;SDS011;18963;51.504;5.316;2023-09-07T05:28:51;17.90;;;10.38;;
32521;SDS011;18963;51.504;5.316;2023-09-07T05:31:17;16.52;;;10.20;;
32521;SDS011;18963;51.504;5.316;2023-09-07T05:33:43;19.40;;;10.07;;
32521;SDS011;18963;51.504;5.316;2023-09-07T05:36:08;18.90;;;10.55;;
32521;SDS011;18963;51.504;5.316;2023-09-07T05:38:34;20.77;;;10.95;;
32521;SDS011;18963;51.504;5.316;2023-09-07T05:40:59;21.83;;;11.52;;
32521;SDS011;18963;51.504;5.316;2023-09-07T05:43:25;16.70;;;10.27;;
32521;SDS011;18963;51.504;5.316;2023-09-07T05:45:50;17.98;;;10.18;;
32521;SDS011;18963;51.504;5.316;2023-09-07T05:48:16;18.50;;;10.23;;
32521;SDS011;18963;51.504;5.316;2023-09-07T05:50:42;17.58;;;10.80;;
32521;SDS011;18963;51.504;5.316;2023-09-07T05:53:08;17.65;;;12.18;;
32521;SDS011;18963;51.504;5.316;2023-09-07T05:55:33;20.35;;;11.75;;
32521;SDS011;18963;51.504;5.316;2023-09-07T05:57:59;24.73;;;12.13;;
32521;SDS011;18963;51.504;5.316;2023-09-07T06:00:28;21.42;;;12.15;;
32521;SDS011;18963;51.504;5.316;2023-09-07T06:02:54;20.25;;;12.23;;
32521;SDS011;18963;51.504;5.316;2023-09-07T06:05:20;17.48;;;10.38;;
32521;SDS011;18963;51.504;5.316;2023-09-07T06:07:45;18.67;;;11.77;;
32521;SDS011;18963;51.504;5.316;2023-09-07T06:10:11;19.15;;;10.77;;
32521;SDS011;18963;51.504;5.316;2023-09-07T06:12:37;18.90;;;10.95;;
32521;SDS011;18963;51.504;5.316;2023-09-07T06:15:02;17.23;;;10.20;;
32521;SDS011;18963;51.504;5.316;2023-09-07T06:17:29;20.05;;;10.20;;
32521;SDS011;18963;51.504;5.316;2023-09-07T06:19:54;18.38;;;10.52;;
32521;SDS011;18963;51.504;5.316;2023-09-07T06:22:20;16.33;;;10.18;;
32521;SDS011;18963;51.504;5.316;2023-09-07T06:24:46;14.43;;;8.82;;
32521;SDS011;18963;51.504;5.316;2023-09-07T06:27:12;16.75;;;9.20;;
32521;SDS011;18963;51.504;5.316;2023-09-07T06:29:38;14.80;;;8.18;;
32521;SDS011;18963;51.504;5.316;2023-09-07T06:32:03;15.32;;;8.88;;
32521;SDS011;18963;51.504;5.316;2023-09-07T06:34:29;15.90;;;8.73;;
32521;SDS011;18963;51.504;5.316;2023-09-07T06:36:54;14.25;;;7.97;;
32521;SDS011;18963;51.504;5.316;2023-09-07T06:39:20;14.00;;;8.38;;
32521;SDS011;18963;51.504;5.316;2023-09-07T06:41:45;13.27;;;7.43;;
32521;SDS011;18963;51.504;5.316;2023-09-07T06:44:11;13.98;;;7.57;;
32521;SDS011;18963;51.504;5.316;2023-09-07T06:46:37;13.00;;;7.65;;
32521;SDS011;18963;51.504;5.316;2023-09-07T06:49:02;15.45;;;8.18;;
32521;SDS011;18963;51.504;5.316;2023-09-07T06:51:29;11.55;;;7.38;;
32521;SDS011;18963;51.504;5.316;2023-09-07T06:53:55;11.75;;;7.45;;
32521;SDS011;18963;51.504;5.316;2023-09-07T06:56:21;9.30;;;6.18;;
32521;SDS011;18963;51.504;5.316;2023-09-07T06:58:47;11.30;;;6.55;;
32521;SDS011;18963;51.504;5.316;2023-09-07T07:01:12;11.70;;;7.07;;
32521;SDS011;18963;51.504;5.316;2023-09-07T07:03:38;11.68;;;6.55;;
32521;SDS011;18963;51.504;5.316;2023-09-07T07:06:04;13.43;;;6.88;;
32521;SDS011;18963;51.504;5.316;2023-09-07T07:08:29;11.10;;;6.47;;
32521;SDS011;18963;51.504;5.316;2023-09-07T07:10:54;8.88;;;5.38;;
32521;SDS011;18963;51.504;5.316;2023-09-07T07:13:20;10.45;;;5.47;;
32521;SDS011;18963;51.504;5.316;2023-09-07T07:15:46;8.85;;;5.13;;
32521;SDS011;18963;51.504;5.316;2023-09-07T07:18:11;9.57;;;5.07;;
32521;SDS011;18963;51.504;5.316;2023-09-07T07:20:37;9.82;;;4.93;;
32521;SDS011;18963;51.504;5.316;2023-09-07T07:23:03;8.85;;;5.38;;
32521;SDS011;18963;51.504;5.316;2023-09-07T07:25:31;10.60;;;5.68;;
32521;SDS011;18963;51.504;5.316;2023-09-07T07:27:58;8.45;;;4.55;;
32521;SDS011;18963;51.504;5.316;2023-09-07T07:30:26;6.75;;;4.07;;
32521;SDS011;18963;51.504;5.316;2023-09-07T07:32:53;8.00;;;4.45;;
32521;SDS011;18963;51.504;5.316;2023-09-07T07:35:18;8.18;;;4.43;;
32521;SDS011;18963;51.504;5.316;2023-09-07T07:37:44;7.18;;;3.67;;
32521;SDS011;18963;51.504;5.316;2023-09-07T07:40:09;10.05;;;4.35;;
32521;SDS011;18963;51.504;5.316;2023-09-07T07:42:35;7.25;;;4.07;;
32521;SDS011;18963;51.504;5.316;2023-09-07T07:45:01;7.50;;;3.85;;
32521;SDS011;18963;51.504;5.316;2023-09-07T07:47:27;7.78;;;3.88;;
32521;SDS011;18963;51.504;5.316;2023-09-07T07:49:52;7.35;;;3.85;;
32521;SDS011;18963;51.504;5.316;2023-09-07T07:52:18;7.57;;;3.55;;
32521;SDS011;18963;51.504;5.316;2023-09-07T07:54:43;7.43;;;3.85;;
32521;SDS011;18963;51.504;5.316;2023-09-07T07:57:09;8.98;;;4.05;;
32521;SDS011;18963;51.504;5.316;2023-09-07T07:59:35;8.00;;;3.63;;
32521;SDS011;18963;51.504;5.316;2023-09-07T08:02:01;9.20;;;4.10;;
32521;SDS011;18963;51.504;5.316;2023-09-07T08:04:26;7.80;;;3.80;;
32521;SDS011;18963;51.504;5.316;2023-09-07T08:06:52;6.80;;;3.53;;
32521;SDS011;18963;51.504;5.316;2023-09-07T08:09:23;9.23;;;3.80;;
32521;SDS011;18963;51.504;5.316;2023-09-07T08:11:48;8.07;;;3.88;;
32521;SDS011;18963;51.504;5.316;2023-09-07T08:14:14;8.50;;;3.70;;
32521;SDS011;18963;51.504;5.316;2023-09-07T08:16:39;6.88;;;3.70;;
32521;SDS011;18963;51.504;5.316;2023-09-07T08:19:05;6.25;;;3.80;;
32521;SDS011;18963;51.504;5.316;2023-09-07T08:21:30;8.02;;;3.88;;
32521;SDS011;18963;51.504;5.316;2023-09-07T08:23:56;8.10;;;3.75;;
32521;SDS011;18963;51.504;5.316;2023-09-07T08:26:21;7.03;;;3.50;;
32521;SDS011;18963;51.504;5.316;2023-09-07T08:28:47;7.75;;;3.58;;
32521;SDS011;18963;51.504;5.316;2023-09-07T08:31:13;5.53;;;3.10;;
32521;SDS011;18963;51.504;5.316;2023-09-07T08:33:45;7.03;;;3.80;;
32521;SDS011;18963;51.504;5.316;2023-09-07T08:36:11;7.00;;;3.53;;
32521;SDS011;18963;51.504;5.316;2023-09-07T08:38:37;7.40;;;3.25;;
32521;SDS011;18963;51.504;5.316;2023-09-07T08:41:02;6.30;;;3.50;;
32521;SDS011;18963;51.504;5.316;2023-09-07T08:43:30;6.05;;;3.10;;
32521;SDS011;18963;51.504;5.316;2023-09-07T08:46:13;9.52;;;2.95;;
32521;SDS011;18963;51.504;5.316;2023-09-07T08:48:39;5.57;;;3.00;;
32521;SDS011;18963;51.504;5.316;2023-09-07T08:51:11;8.27;;;3.92;;
32521;SDS011;18963;51.504;5.316;2023-09-07T08:53:38;6.93;;;3.40;;
32521;SDS011;18963;51.504;5.316;2023-09-07T08:56:04;6.35;;;3.75;;
32521;SDS011;18963;51.504;5.316;2023-09-07T08:58:34;6.80;;;3.50;;
32521;SDS011;18963;51.504;5.316;2023-09-07T09:01:01;6.15;;;3.63;;
32521;SDS011;18963;51.504;5.316;2023-09-07T09:03:26;6.40;;;3.22;;
32521;SDS011;18963;51.504;5.316;2023-09-07T09:05:53;7.75;;;3.38;;
32521;SDS011;18963;51.504;5.316;2023-09-07T09:08:21;8.15;;;3.50;;
32521;SDS011;18963;51.504;5.316;2023-09-07T09:10:49;5.38;;;3.00;;
32521;SDS011;18963;51.504;5.316;2023-09-07T09:13:27;6.07;;;3.10;;
32521;SDS011;18963;51.504;5.316;2023-09-07T09:15:54;7.32;;;3.67;;
32521;SDS011;18963;51.504;5.316;2023-09-07T09:18:20;6.20;;;3.25;;
32521;SDS011;18963;51.504;5.316;2023-09-07T09:20:45;6.20;;;3.20;;
32521;SDS011;18963;51.504;5.316;2023-09-07T09:23:11;6.57;;;3.25;;
32521;SDS011;18963;51.504;5.316;2023-09-07T09:25:40;5.40;;;3.00;;
32521;SDS011;18963;51.504;5.316;2023-09-07T09:28:08;4.95;;;2.70;;
32521;SDS011;18963;51.504;5.316;2023-09-07T09:30:35;5.40;;;2.80;;
32521;SDS011;18963;51.504;5.316;2023-09-07T09:33:01;5.45;;;2.90;;
32521;SDS011;18963;51.504;5.316;2023-09-07T09:35:28;7.05;;;3.05;;
32521;SDS011;18963;51.504;5.316;2023-09-07T09:37:54;6.70;;;3.25;;
32521;SDS011;18963;51.504;5.316;2023-09-07T09:40:20;5.82;;;2.90;;
32521;SDS011;18963;51.504;5.316;2023-09-07T09:42:46;6.22;;;2.95;;
32521;SDS011;18963;51.504;5.316;2023-09-07T09:45:12;8.88;;;3.38;;
32521;SDS011;18963;51.504;5.316;2023-09-07T09:47:39;4.95;;;3.05;;
32521;SDS011;18963;51.504;5.316;2023-09-07T09:50:07;6.20;;;3.33;;
32521;SDS011;18963;51.504;5.316;2023-09-07T09:52:34;5.90;;;3.20;;
32521;SDS011;18963;51.504;5.316;2023-09-07T09:55:01;5.22;;;2.80;;
32521;SDS011;18963;51.504;5.316;2023-09-07T09:57:33;6.30;;;3.40;;
32521;SDS011;18963;51.504;5.316;2023-09-07T09:59:59;7.68;;;3.33;;
32521;SDS011;18963;51.504;5.316;2023-09-07T10:02:29;6.63;;;3.15;;
32521;SDS011;18963;51.504;5.316;2023-09-07T10:04:55;5.78;;;2.75;;
32521;SDS011;18963;51.504;5.316;2023-09-07T10:07:28;7.45;;;3.17;;
32521;SDS011;18963;51.504;5.316;2023-09-07T10:10:05;6.65;;;3.22;;
32521;SDS011;18963;51.504;5.316;2023-09-07T10:12:39;6.70;;;3.13;;
32521;SDS011;18963;51.504;5.316;2023-09-07T10:15:21;7.63;;;3.13;;
32521;SDS011;18963;51.504;5.316;2023-09-07T10:17:48;6.10;;;3.10;;
32521;SDS011;18963;51.504;5.316;2023-09-07T10:20:15;5.93;;;3.03;;
32521;SDS011;18963;51.504;5.316;2023-09-07T10:22:47;8.63;;;3.10;;
32521;SDS011;18963;51.504;5.316;2023-09-07T10:25:20;5.05;;;2.85;;
32521;SDS011;18963;51.504;5.316;2023-09-07T10:27:46;4.97;;;3.00;;
32521;SDS011;18963;51.504;5.316;2023-09-07T10:30:12;5.40;;;2.60;;
32521;SDS011;18963;51.504;5.316;2023-09-07T10:32:38;4.70;;;2.78;;
32521;SDS011;18963;51.504;5.316;2023-09-07T10:35:18;5.72;;;3.13;;
32521;SDS011;18963;51.504;5.316;2023-09-07T10:37:45;6.25;;;2.95;;
32521;SDS011;18963;51.504;5.316;2023-09-07T10:40:18;5.18;;;2.70;;
32521;SDS011;18963;51.504;5.316;2023-09-07T10:42:44;5.75;;;2.78;;
32521;SDS011;18963;51.504;5.316;2023-09-07T10:45:11;6.35;;;2.78;;
32521;SDS011;18963;51.504;5.316;2023-09-07T10:47:42;5.45;;;2.80;;
32521;SDS011;18963;51.504;5.316;2023-09-07T10:50:11;5.50;;;2.70;;
32521;SDS011;18963;51.504;5.316;2023-09-07T10:52:38;6.20;;;2.95;;
32521;SDS011;18963;51.504;5.316;2023-09-07T10:55:08;6.35;;;2.80;;
32521;SDS011;18963;51.504;5.316;2023-09-07T10:57:44;5.45;;;2.72;;
32521;SDS011;18963;51.504;5.316;2023-09-07T11:00:11;4.78;;;2.65;;
32521;SDS011;18963;51.504;5.316;2023-09-07T11:02:38;5.32;;;2.97;;
32521;SDS011;18963;51.504;5.316;2023-09-07T11:05:04;5.07;;;2.60;;
32521;SDS011;18963;51.504;5.316;2023-09-07T11:07:31;4.95;;;2.90;;
32521;SDS011;18963;51.504;5.316;2023-09-07T11:09:57;7.78;;;2.85;;
32521;SDS011;18963;51.504;5.316;2023-09-07T11:12:22;5.85;;;3.10;;
32521;SDS011;18963;51.504;5.316;2023-09-07T11:14:48;7.80;;;3.10;;
32521;SDS011;18963;51.504;5.316;2023-09-07T11:17:13;5.43;;;3.03;;
32521;SDS011;18963;51.504;5.316;2023-09-07T11:19:40;4.13;;;2.38;;
32521;SDS011;18963;51.504;5.316;2023-09-07T11:22:08;5.53;;;3.00;;
32521;SDS011;18963;51.504;5.316;2023-09-07T11:24:35;6.50;;;2.80;;
32521;SDS011;18963;51.504;5.316;2023-09-07T11:27:00;5.20;;;2.88;;
32521;SDS011;18963;51.504;5.316;2023-09-07T11:29:27;12.15;;;3.10;;
32521;SDS011;18963;51.504;5.316;2023-09-07T11:32:05;5.30;;;2.72;;
32521;SDS011;18963;51.504;5.316;2023-09-07T11:34:31;6.68;;;2.70;;
32521;SDS011;18963;51.504;5.316;2023-09-07T11:36:57;6.68;;;2.75;;
32521;SDS011;18963;51.504;5.316;2023-09-07T11:39:22;4.78;;;2.67;;
32521;SDS011;18963;51.504;5.316;2023-09-07T11:41:48;5.00;;;2.75;;
32521;SDS011;18963;51.504;5.316;2023-09-07T11:44:14;4.75;;;2.88;;
32521;SDS011;18963;51.504;5.316;2023-09-07T11:46:39;7.40;;;2.90;;
32521;SDS011;18963;51.504;5.316;2023-09-07T11:49:05;5.32;;;2.70;;
32521;SDS011;18963;51.504;5.316;2023-09-07T11:51:31;5.47;;;2.65;;
32521;SDS011;18963;51.504;5.316;2023-09-07T11:53:56;6.32;;;2.80;;
32521;SDS011;18963;51.504;5.316;2023-09-07T11:56:22;5.32;;;2.55;;
32521;SDS011;18963;51.504;5.316;2023-09-07T11:58:47;5.72;;;2.85;;
32521;SDS011;18963;51.504;5.316;2023-09-07T12:01:13;4.65;;;2.70;;
32521;SDS011;18963;51.504;5.316;2023-09-07T12:03:41;4.88;;;2.47;;
32521;SDS011;18963;51.504;5.316;2023-09-07T12:06:07;6.05;;;2.83;;
32521;SDS011;18963;51.504;5.316;2023-09-07T12:08:34;5.30;;;2.40;;
32521;SDS011;18963;51.504;5.316;2023-09-07T12:11:00;5.95;;;2.65;;
32521;SDS011;18963;51.504;5.316;2023-09-07T12:13:25;4.97;;;2.88;;
32521;SDS011;18963;51.504;5.316;2023-09-07T12:15:51;6.53;;;2.85;;
32521;SDS011;18963;51.504;5.316;2023-09-07T12:18:16;5.43;;;2.70;;
32521;SDS011;18963;51.504;5.316;2023-09-07T12:20:42;5.45;;;2.80;;
32521;SDS011;18963;51.504;5.316;2023-09-07T12:23:09;6.07;;;2.72;;
32521;SDS011;18963;51.504;5.316;2023-09-07T12:25:35;5.75;;;2.80;;
32521;SDS011;18963;51.504;5.316;2023-09-07T12:28:01;5.43;;;2.95;;
32521;SDS011;18963;51.504;5.316;2023-09-07T12:30:28;4.60;;;2.67;;
32521;SDS011;18963;51.504;5.316;2023-09-07T12:32:53;4.88;;;2.90;;
32521;SDS011;18963;51.504;5.316;2023-09-07T12:35:19;4.47;;;2.60;;
32521;SDS011;18963;51.504;5.316;2023-09-07T12:37:45;10.77;;;3.40;;
32521;SDS011;18963;51.504;5.316;2023-09-07T12:40:11;4.85;;;3.00;;
32521;SDS011;18963;51.504;5.316;2023-09-07T12:42:44;6.10;;;3.25;;
32521;SDS011;18963;51.504;5.316;2023-09-07T12:45:11;5.32;;;2.80;;
32521;SDS011;18963;51.504;5.316;2023-09-07T12:47:37;5.97;;;3.00;;
32521;SDS011;18963;51.504;5.316;2023-09-07T12:50:04;5.72;;;3.20;;
32521;SDS011;18963;51.504;5.316;2023-09-07T12:52:30;6.40;;;2.97;;
32521;SDS011;18963;51.504;5.316;2023-09-07T12:54:56;6.75;;;3.15;;
32521;SDS011;18963;51.504;5.316;2023-09-07T12:57:21;6.40;;;3.47;;
32521;SDS011;18963;51.504;5.316;2023-09-07T12:59:47;5.28;;;2.58;;
32521;SDS011;18963;51.504;5.316;2023-09-07T13:02:12;7.30;;;3.35;;
32521;SDS011;18963;51.504;5.316;2023-09-07T13:04:38;5.10;;;3.00;;
32521;SDS011;18963;51.504;5.316;2023-09-07T13:07:03;8.95;;;2.95;;
32521;SDS011;18963;51.504;5.316;2023-09-07T13:09:29;5.13;;;3.08;;
32521;SDS011;18963;51.504;5.316;2023-09-07T13:11:54;5.38;;;3.20;;
32521;SDS011;18963;51.504;5.316;2023-09-07T13:14:20;6.28;;;2.90;;
32521;SDS011;18963;51.504;5.316;2023-09-07T13:16:45;6.65;;;2.83;;
32521;SDS011;18963;51.504;5.316;2023-09-07T13:19:11;7.07;;;2.97;;
32521;SDS011;18963;51.504;5.316;2023-09-07T13:21:36;6.10;;;3.17;;
32521;SDS011;18963;51.504;5.316;2023-09-07T13:24:03;5.25;;;3.10;;
32521;SDS011;18963;51.504;5.316;2023-09-07T13:26:29;6.88;;;3.38;;
32521;SDS011;18963;51.504;5.316;2023-09-07T13:28:54;5.43;;;3.00;;
32521;SDS011;18963;51.504;5.316;2023-09-07T13:31:20;6.03;;;3.28;;
32521;SDS011;18963;51.504;5.316;2023-09-07T13:33:45;8.38;;;2.90;;
32521;SDS011;18963;51.504;5.316;2023-09-07T13:36:10;5.43;;;2.90;;
32521;SDS011;18963;51.504;5.316;2023-09-07T13:38:36;6.30;;;3.10;;
32521;SDS011;18963;51.504;5.316;2023-09-07T13:41:02;7.70;;;3.55;;
32521;SDS011;18963;51.504;5.316;2023-09-07T13:43:27;6.28;;;3.10;;
32521;SDS011;18963;51.504;5.316;2023-09-07T13:45:53;5.63;;;3.30;;
32521;SDS011;18963;51.504;5.316;2023-09-07T13:48:18;6.03;;;3.17;;
32521;SDS011;18963;51.504;5.316;2023-09-07T13:50:44;7.07;;;3.30;;
32521;SDS011;18963;51.504;5.316;2023-09-07T13:53:09;5.32;;;3.00;;
32521;SDS011;18963;51.504;5.316;2023-09-07T13:55:35;8.07;;;3.55;;
32521;SDS011;18963;51.504;5.316;2023-09-07T13:58:00;9.57;;;3.28;;
32521;SDS011;18963;51.504;5.316;2023-09-07T14:00:26;5.15;;;2.88;;
32521;SDS011;18963;51.504;5.316;2023-09-07T14:02:51;6.70;;;3.50;;
32521;SDS011;18963;51.504;5.316;2023-09-07T14:05:17;5.97;;;2.97;;
32521;SDS011;18963;51.504;5.316;2023-09-07T14:07:43;6.35;;;3.42;;
32521;SDS011;18963;51.504;5.316;2023-09-07T14:10:09;6.47;;;3.55;;
32521;SDS011;18963;51.504;5.316;2023-09-07T14:12:34;6.85;;;3.70;;
32521;SDS011;18963;51.504;5.316;2023-09-07T14:15:00;10.63;;;3.45;;
32521;SDS011;18963;51.504;5.316;2023-09-07T14:17:25;9.95;;;3.20;;
32521;SDS011;18963;51.504;5.316;2023-09-07T14:19:51;5.72;;;3.03;;
32521;SDS011;18963;51.504;5.316;2023-09-07T14:22:16;6.50;;;3.38;;
32521;SDS011;18963;51.504;5.316;2023-09-07T14:24:42;5.45;;;2.92;;
32521;SDS011;18963;51.504;5.316;2023-09-07T14:27:07;5.20;;;3.05;;
32521;SDS011;18963;51.504;5.316;2023-09-07T14:29:34;5.93;;;3.50;;
32521;SDS011;18963;51.504;5.316;2023-09-07T14:32:00;5.20;;;2.80;;
32521;SDS011;18963;51.504;5.316;2023-09-07T14:34:25;7.40;;;3.78;;